createdAt,value
2023-04-07T00:02:16.760Z,15.50
2023-04-07T00:05:20.103Z,19.98
2023-04-07T00:08:22.965Z,22.35
2023-04-07T00:11:26.488Z,18.45
2023-04-07T00:14:30.179Z,17.30
2023-04-07T00:17:33.399Z,20.60
2023-04-07T00:20:36.838Z,13.98
2023-04-07T00:23:39.774Z,14.38
2023-04-07T00:26:42.739Z,17.20
2023-04-07T00:29:46.965Z,15.55
2023-04-07T00:32:51.567Z,15.13
2023-04-07T00:35:54.873Z,18.25
2023-04-07T00:38:57.886Z,17.52
2023-04-07T00:42:01.569Z,18.87
2023-04-07T00:45:04.932Z,17.92
2023-04-07T00:48:08.291Z,14.25
2023-04-07T00:51:11.577Z,19.92
2023-04-07T00:54:15.534Z,17.65
2023-04-07T00:57:18.497Z,17.58
2023-04-07T01:00:23.317Z,16.45
2023-04-07T01:03:34.234Z,17.83
2023-04-07T01:06:40.775Z,15.23
2023-04-07T01:09:51.809Z,20.20
2023-04-07T01:13:08.738Z,19.05
2023-04-07T01:16:14.129Z,16.25
2023-04-07T01:19:30.761Z,15.20
2023-04-07T01:22:43.371Z,20.35
2023-04-07T01:26:10.053Z,15.25
2023-04-07T01:29:25.394Z,18.60
2023-04-07T01:32:30.223Z,17.42
2023-04-07T01:35:35.475Z,19.23
2023-04-07T01:38:39.164Z,18.12
2023-04-07T01:41:42.391Z,21.15
2023-04-07T01:44:46.992Z,19.02
2023-04-07T01:47:50.491Z,19.67
2023-04-07T01:50:55.420Z,20.67
2023-04-07T01:54:00.980Z,21.53
2023-04-07T01:57:04.358Z,19.30
2023-04-07T02:00:08.777Z,21.85
2023-04-07T02:03:24.669Z,18.60
2023-04-07T02:06:33.843Z,16.70
2023-04-07T02:09:39.275Z,18.70
2023-04-07T02:15:46.022Z,18.95
2023-04-07T02:18:49.608Z,18.08
2023-04-07T02:21:53.099Z,17.02
2023-04-07T02:24:57.617Z,21.12
2023-04-07T02:28:03.301Z,19.35
2023-04-07T02:31:06.254Z,19.02
2023-04-07T02:34:10.180Z,16.45
2023-04-07T02:37:15.516Z,20.27
2023-04-07T02:40:18.779Z,15.90
2023-04-07T02:43:21.792Z,19.30
2023-04-07T02:46:27.393Z,18.95
2023-04-07T02:49:30.329Z,16.20
2023-04-07T02:52:33.592Z,15.18
2023-04-07T02:55:37.611Z,20.33
2023-04-07T02:58:41.109Z,18.62
2023-04-07T03:01:44.331Z,18.05
2023-04-07T03:04:48.356Z,19.35
2023-04-07T03:07:52.180Z,16.85
2023-04-07T03:10:55.579Z,17.67
2023-04-07T03:14:00.035Z,16.20
2023-04-07T03:17:04.645Z,16.27
2023-04-07T03:20:08.605Z,18.90
2023-04-07T03:23:13.800Z,17.12
2023-04-07T03:26:18.739Z,18.17
2023-04-07T03:29:22.094Z,15.82
2023-04-07T03:32:27.565Z,15.73
2023-04-07T03:35:32.410Z,17.55
2023-04-07T03:38:35.677Z,16.35
2023-04-07T03:41:39.155Z,18.02
2023-04-07T03:44:42.737Z,18.65
2023-04-07T03:47:46.504Z,18.92
2023-04-07T03:50:49.653Z,17.30
2023-04-07T03:53:53.533Z,17.48
2023-04-07T03:57:00.004Z,16.73
2023-04-07T04:00:04.022Z,19.40
2023-04-07T04:03:19.196Z,20.48
2023-04-07T04:06:23.485Z,20.53
2023-04-07T04:09:26.998Z,19.05
2023-04-07T04:12:30.341Z,20.25
2023-04-07T04:15:34.644Z,20.88
2023-04-07T04:18:39.205Z,23.13
2023-04-07T04:21:42.455Z,25.20
2023-04-07T04:24:46.278Z,21.12
2023-04-07T04:27:49.696Z,19.55
2023-04-07T04:30:53.219Z,26.92
2023-04-07T04:33:56.357Z,22.87
2023-04-07T04:37:00.175Z,21.10
2023-04-07T04:40:04.277Z,24.85
2023-04-07T04:43:09.740Z,23.15
2023-04-07T04:46:14.334Z,24.20
2023-04-07T04:49:19.906Z,27.08
2023-04-07T04:52:23.143Z,27.60
2023-04-07T04:55:27.513Z,24.48
2023-04-07T04:58:32.491Z,25.15
2023-04-07T05:01:35.758Z,26.83
2023-04-07T05:04:39.061Z,22.23
2023-04-07T05:07:43.318Z,27.20
2023-04-07T05:10:47.777Z,22.23
2023-04-07T05:13:52.602Z,23.95
2023-04-07T05:16:55.757Z,24.30
2023-04-07T05:19:59.340Z,29.35
2023-04-07T05:23:03.235Z,17.00
2023-04-07T05:26:07.105Z,25.30
2023-04-07T05:29:12.457Z,27.35
2023-04-07T05:32:15.768Z,27.45
2023-04-07T05:35:19.015Z,25.42
2023-04-07T05:38:24.596Z,25.17
2023-04-07T05:41:29.891Z,32.35
2023-04-07T05:44:33.514Z,27.33
2023-04-07T05:47:36.691Z,27.05
2023-04-07T05:50:41.763Z,23.62
2023-04-07T05:53:44.846Z,25.97
2023-04-07T05:56:49.000Z,24.45
2023-04-07T05:59:52.530Z,23.70
2023-04-07T06:02:56.347Z,22.48
2023-04-07T06:06:00.919Z,25.77
2023-04-07T06:09:04.595Z,23.52
2023-04-07T06:12:09.437Z,21.65
2023-04-07T06:15:12.629Z,26.42
2023-04-07T06:18:15.986Z,22.55
2023-04-07T06:21:18.927Z,23.87
2023-04-07T06:24:25.461Z,23.02
2023-04-07T06:27:28.491Z,25.80
2023-04-07T06:30:32.178Z,23.85
2023-04-07T06:33:35.511Z,30.73
2023-04-07T06:36:38.769Z,22.85
2023-04-07T06:39:41.788Z,23.67
2023-04-07T06:42:46.274Z,21.85
2023-04-07T06:45:52.447Z,24.90
2023-04-07T06:48:55.684Z,20.52
2023-04-07T06:51:59.462Z,21.65
2023-04-07T06:55:02.813Z,20.98
2023-04-07T06:58:05.940Z,20.08
2023-04-07T07:01:09.443Z,21.45
2023-04-07T07:04:12.536Z,18.45
2023-04-07T07:07:16.111Z,19.20
2023-04-07T07:10:20.726Z,24.75
2023-04-07T07:13:26.645Z,18.52
2023-04-07T07:16:29.490Z,19.02
2023-04-07T07:19:32.693Z,18.00
2023-04-07T07:22:35.984Z,19.08
2023-04-07T07:25:39.356Z,18.23
2023-04-07T07:28:42.314Z,19.20
2023-04-07T07:31:45.986Z,18.95
2023-04-07T07:34:48.851Z,18.35
2023-04-07T07:37:53.020Z,21.00
2023-04-07T07:40:56.092Z,19.77
2023-04-07T07:43:59.302Z,19.67
2023-04-07T07:47:02.263Z,20.58
2023-04-07T07:50:05.954Z,16.95
2023-04-07T07:53:08.912Z,19.15
2023-04-07T07:56:12.124Z,18.42
2023-04-07T07:59:16.638Z,21.05
2023-04-07T08:02:20.975Z,18.67
2023-04-07T08:05:24.391Z,20.95
2023-04-07T08:08:27.268Z,19.37
2023-04-07T08:11:30.423Z,18.05
2023-04-07T08:14:33.924Z,20.10
2023-04-07T08:17:37.182Z,21.48
2023-04-07T08:20:40.924Z,19.95
2023-04-07T08:23:44.176Z,19.98
2023-04-07T08:26:47.276Z,19.48
2023-04-07T08:30:00.609Z,21.17
2023-04-07T08:33:04.335Z,23.40
2023-04-07T08:36:07.912Z,21.73
2023-04-07T08:39:10.966Z,20.17
2023-04-07T08:42:14.444Z,21.45
2023-04-07T08:45:19.424Z,19.80
2023-04-07T08:48:27.272Z,18.37
2023-04-07T08:51:33.307Z,21.15
2023-04-07T08:54:36.903Z,19.55
2023-04-07T08:57:40.258Z,18.87
2023-04-07T09:00:49.801Z,18.83
2023-04-07T09:03:52.997Z,21.90
2023-04-07T09:06:57.412Z,16.25
2023-04-07T09:10:01.738Z,22.58
2023-04-07T09:13:04.986Z,21.85
2023-04-07T09:16:08.157Z,23.23
2023-04-07T09:19:11.517Z,23.38
2023-04-07T09:22:14.951Z,26.17
2023-04-07T09:25:20.037Z,23.02
2023-04-07T09:28:23.120Z,21.55
2023-04-07T09:31:50.350Z,21.00
2023-04-07T09:34:59.306Z,23.17
2023-04-07T09:38:07.732Z,21.40
2023-04-07T09:41:11.683Z,19.12
2023-04-07T09:44:15.058Z,23.80
2023-04-07T09:47:18.153Z,22.52
2023-04-07T09:50:35.441Z,22.73
2023-04-07T09:53:50.103Z,20.70
2023-04-07T09:56:53.762Z,18.95
2023-04-07T09:59:57.306Z,19.45
2023-04-07T10:03:00.942Z,21.30
2023-04-07T10:06:06.501Z,21.90
2023-04-07T10:09:10.654Z,22.13
2023-04-07T10:12:14.673Z,17.27
2023-04-07T10:15:17.727Z,17.37
2023-04-07T10:18:21.637Z,16.73
2023-04-07T10:21:26.037Z,17.77
2023-04-07T10:24:47.548Z,17.05
2023-04-07T10:27:54.002Z,12.27
2023-04-07T10:30:58.305Z,19.03
2023-04-07T10:34:02.855Z,20.80
2023-04-07T10:37:13.829Z,22.35
2023-04-07T10:40:19.577Z,19.90
2023-04-07T10:43:44.332Z,18.92
2023-04-07T10:46:48.838Z,17.00
2023-04-07T10:50:20.612Z,18.17
2023-04-07T10:53:24.348Z,18.15
2023-04-07T10:56:28.144Z,19.62
2023-04-07T10:59:32.295Z,17.87
2023-04-07T11:02:36.044Z,19.63
2023-04-07T11:05:42.514Z,16.62
2023-04-07T11:08:49.322Z,15.70
2023-04-07T11:11:53.616Z,17.77
2023-04-07T11:14:57.483Z,20.30
2023-04-07T11:18:23.478Z,20.70
2023-04-07T11:21:26.628Z,21.05
2023-04-07T11:24:39.446Z,18.30
2023-04-07T11:27:44.883Z,18.62
2023-04-07T11:34:00.032Z,20.15
2023-04-07T11:37:26.304Z,20.50
2023-04-07T11:43:45.406Z,18.60
2023-04-07T11:46:59.986Z,19.33
2023-04-07T11:50:03.052Z,16.33
2023-04-07T11:53:06.280Z,17.10
2023-04-07T11:56:16.576Z,17.40
2023-04-07T11:59:25.022Z,16.50
2023-04-07T12:02:34.604Z,18.95
2023-04-07T12:05:45.183Z,17.77
2023-04-07T12:08:48.204Z,18.30
2023-04-07T12:11:51.573Z,17.17
2023-04-07T12:14:54.987Z,18.27
2023-04-07T12:17:58.180Z,16.15
2023-04-07T12:21:01.642Z,19.37
2023-04-07T12:24:04.929Z,17.77
2023-04-07T12:27:07.949Z,18.42
2023-04-07T12:30:13.225Z,16.98
2023-04-07T12:33:16.991Z,18.77
2023-04-07T12:36:20.257Z,19.83
2023-04-07T12:39:23.626Z,16.05
2023-04-07T12:42:27.348Z,19.33
2023-04-07T12:45:31.372Z,19.17
2023-04-07T12:48:34.824Z,19.87
2023-04-07T12:51:40.115Z,18.37
2023-04-07T12:54:45.093Z,18.37
2023-04-07T12:57:48.475Z,20.85
2023-04-07T13:00:52.383Z,20.35
2023-04-07T13:03:56.271Z,18.40
2023-04-07T13:07:01.075Z,19.45
2023-04-07T13:10:06.242Z,17.70
2023-04-07T13:13:09.376Z,23.02
2023-04-07T13:16:12.433Z,19.50
2023-04-07T13:19:16.205Z,22.90
2023-04-07T13:22:22.140Z,18.98
2023-04-07T13:25:27.543Z,18.37
2023-04-07T13:28:30.554Z,19.85
2023-04-07T13:31:33.769Z,21.58
2023-04-07T13:34:38.276Z,18.55
2023-04-07T13:37:41.499Z,19.75
2023-04-07T13:40:45.374Z,19.62
2023-04-07T13:43:49.145Z,17.92
2023-04-07T13:46:52.779Z,18.85
2023-04-07T13:49:56.178Z,17.48
2023-04-07T13:52:59.069Z,19.17
2023-04-07T13:56:03.684Z,18.92
2023-04-07T13:59:07.818Z,19.90
2023-04-07T14:02:11.533Z,21.37
2023-04-07T14:05:14.731Z,19.17
2023-04-07T14:08:19.163Z,19.80
2023-04-07T14:11:22.800Z,18.58
2023-04-07T14:14:25.743Z,15.98
2023-04-07T14:17:29.047Z,19.25
2023-04-07T14:20:32.107Z,20.75
2023-04-07T14:23:37.633Z,19.27
2023-04-07T14:26:40.797Z,18.52
2023-04-07T14:29:44.003Z,17.20
2023-04-07T14:32:47.078Z,18.55
2023-04-07T14:35:50.345Z,17.23
2023-04-07T14:38:54.342Z,21.52
2023-04-07T14:41:57.606Z,15.90
2023-04-07T14:45:00.645Z,17.58
2023-04-07T14:48:04.010Z,18.62
2023-04-07T14:51:12.983Z,19.30
2023-04-07T14:54:16.172Z,20.45
2023-04-07T14:57:19.786Z,18.42
2023-04-07T15:00:25.434Z,17.85
2023-04-07T15:06:34.064Z,18.67
2023-04-07T15:09:36.904Z,17.80
2023-04-07T15:12:40.981Z,19.83
2023-04-07T15:15:43.860Z,15.73
2023-04-07T15:18:48.388Z,18.70
2023-04-07T15:21:51.284Z,16.67
2023-04-07T15:24:54.429Z,18.90
2023-04-07T15:27:57.395Z,20.85
2023-04-07T15:31:01.399Z,23.38
2023-04-07T15:34:04.542Z,19.30
2023-04-07T15:37:08.597Z,21.23
2023-04-07T15:40:11.897Z,18.15
2023-04-07T15:43:15.079Z,20.15
2023-04-07T15:46:17.943Z,18.50
2023-04-07T15:49:24.311Z,17.67
2023-04-07T15:52:29.247Z,18.70
2023-04-07T15:55:34.939Z,20.48
2023-04-07T16:01:42.458Z,18.27
2023-04-07T16:04:47.615Z,20.40
2023-04-07T16:10:54.671Z,19.77
2023-04-07T16:13:57.610Z,20.83
2023-04-07T16:17:00.980Z,19.62
2023-04-07T16:20:04.737Z,19.87
2023-04-07T16:23:08.082Z,19.77
2023-04-07T16:26:11.187Z,19.08
2023-04-07T16:29:14.384Z,21.85
2023-04-07T16:32:17.277Z,23.58
2023-04-07T16:35:20.654Z,22.83
2023-04-07T16:38:24.242Z,29.00
2023-04-07T16:41:27.603Z,24.67
2023-04-07T16:44:32.724Z,28.10
2023-04-07T16:47:36.908Z,43.97
2023-04-07T16:50:44.206Z,46.90
2023-04-07T16:53:48.155Z,31.20
2023-04-07T16:56:51.992Z,39.00
2023-04-07T16:59:55.339Z,40.45
2023-04-07T17:02:58.377Z,38.95
2023-04-07T17:06:05.644Z,33.35
2023-04-07T17:09:08.594Z,31.20
2023-04-07T17:12:13.079Z,32.88
2023-04-07T17:15:16.204Z,36.63
2023-04-07T17:18:20.846Z,38.42
2023-04-07T17:21:23.713Z,36.67
2023-04-07T17:24:26.881Z,41.08
2023-04-07T17:27:29.866Z,40.47
2023-04-07T17:30:33.238Z,42.28
2023-04-07T17:33:36.239Z,42.58
2023-04-07T17:36:39.450Z,44.15
2023-04-07T17:39:42.535Z,42.75
2023-04-07T17:42:45.985Z,43.95
2023-04-07T17:45:48.915Z,45.90
2023-04-07T17:48:52.401Z,38.03
2023-04-07T17:51:56.654Z,34.17
2023-04-07T17:55:01.173Z,37.13
2023-04-07T17:58:04.049Z,34.85
2023-04-07T18:01:12.572Z,39.67
2023-04-07T18:04:17.915Z,32.83
2023-04-07T18:07:21.379Z,45.60
2023-04-07T18:10:26.111Z,41.23
2023-04-07T18:13:30.480Z,38.47
2023-04-07T18:16:34.279Z,43.35
2023-04-07T18:19:37.584Z,67.60
2023-04-07T18:22:41.047Z,58.35
2023-04-07T18:25:44.061Z,67.07
2023-04-07T18:28:47.369Z,46.83
2023-04-07T18:31:50.608Z,39.03
2023-04-07T18:34:54.961Z,57.58
2023-04-07T18:37:59.216Z,51.35
2023-04-07T18:41:02.618Z,36.00
2023-04-07T18:44:05.652Z,34.60
2023-04-07T18:47:08.891Z,29.33
2023-04-07T18:50:12.191Z,36.42
2023-04-07T18:53:17.100Z,29.70
2023-04-07T18:56:22.742Z,34.43
2023-04-07T18:59:29.239Z,37.63
2023-04-07T19:02:32.229Z,33.33
2023-04-07T19:05:37.545Z,35.90
2023-04-07T19:08:41.141Z,33.70
2023-04-07T19:11:44.964Z,34.42
2023-04-07T19:14:48.045Z,49.33
2023-04-07T19:17:52.861Z,38.20
2023-04-07T19:20:56.143Z,40.20
2023-04-07T19:23:59.940Z,38.75
2023-04-07T19:27:03.393Z,40.45
2023-04-07T19:30:07.563Z,46.85
2023-04-07T19:33:11.925Z,40.67
2023-04-07T19:36:15.517Z,37.03
2023-04-07T19:39:18.696Z,67.30
2023-04-07T19:42:22.051Z,51.00
2023-04-07T19:45:25.734Z,34.92
2023-04-07T19:48:29.836Z,42.55
2023-04-07T19:51:33.251Z,40.30
2023-04-07T19:54:37.009Z,38.30
2023-04-07T19:57:43.284Z,38.33
2023-04-07T20:00:49.819Z,36.03
2023-04-07T20:03:53.181Z,38.08
2023-04-07T20:06:56.239Z,40.38
2023-04-07T20:10:00.155Z,39.50
2023-04-07T20:13:04.565Z,33.58
2023-04-07T20:16:09.196Z,30.95
2023-04-07T20:19:12.291Z,31.98
2023-04-07T20:22:15.848Z,36.38
2023-04-07T20:25:18.939Z,38.33
2023-04-07T20:28:22.446Z,35.70
2023-04-07T20:31:25.643Z,30.83
2023-04-07T20:34:29.276Z,34.80
2023-04-07T20:37:32.223Z,35.65
2023-04-07T20:40:37.053Z,34.00
2023-04-07T20:43:40.172Z,35.87
2023-04-07T20:46:44.403Z,41.58
2023-04-07T20:49:47.384Z,39.47
2023-04-07T20:52:50.636Z,36.55
2023-04-07T20:55:53.674Z,39.30
2023-04-07T20:58:56.847Z,33.72
2023-04-07T21:01:59.975Z,30.65
2023-04-07T21:05:04.216Z,33.88
2023-04-07T21:08:08.578Z,34.60
2023-04-07T21:11:11.756Z,33.88
2023-04-07T21:14:14.710Z,33.78
2023-04-07T21:17:18.023Z,37.47
2023-04-07T21:20:20.876Z,37.92
2023-04-07T21:23:24.087Z,39.72
2023-04-07T21:26:27.389Z,44.83
2023-04-07T21:29:33.263Z,41.65
2023-04-07T21:32:36.773Z,36.92
2023-04-07T21:35:40.572Z,35.40
2023-04-07T21:38:43.661Z,36.53
2023-04-07T21:41:46.736Z,37.47
2023-04-07T21:44:50.067Z,38.42
2023-04-07T21:47:53.320Z,41.72
2023-04-07T21:50:56.700Z,37.97
2023-04-07T21:53:59.885Z,44.33
2023-04-07T21:57:02.839Z,35.75
2023-04-07T22:00:07.472Z,43.75
2023-04-07T22:03:17.548Z,32.05
2023-04-07T22:06:20.943Z,28.17
2023-04-07T22:09:24.334Z,33.30
2023-04-07T22:12:27.792Z,40.50
2023-04-07T22:15:30.869Z,28.33
2023-04-07T22:18:34.039Z,28.30
2023-04-07T22:21:36.933Z,34.00
2023-04-07T22:24:40.379Z,27.73
2023-04-07T22:27:43.331Z,29.08
2023-04-07T22:30:46.563Z,24.95
2023-04-07T22:33:49.796Z,25.23
2023-04-07T22:36:54.368Z,25.25
2023-04-07T22:39:57.235Z,24.30
2023-04-07T22:43:02.280Z,25.07
2023-04-07T22:46:05.280Z,24.48
2023-04-07T22:49:08.566Z,23.23
2023-04-07T22:52:11.479Z,22.27
2023-04-07T22:55:14.737Z,20.98
2023-04-07T22:58:17.747Z,19.08
2023-04-07T23:01:21.137Z,20.52
2023-04-07T23:04:24.894Z,20.98
2023-04-07T23:07:28.066Z,21.48
2023-04-07T23:10:32.221Z,21.08
2023-04-07T23:13:35.404Z,24.02
2023-04-07T23:16:38.369Z,18.30
2023-04-07T23:19:42.748Z,16.60
2023-04-07T23:22:45.824Z,14.13
2023-04-07T23:25:49.738Z,13.48
2023-04-07T23:28:52.693Z,16.87
2023-04-07T23:31:56.036Z,15.20
2023-04-07T23:34:59.005Z,13.80
2023-04-07T23:38:02.521Z,14.13
2023-04-07T23:41:05.439Z,14.50
2023-04-07T23:44:08.911Z,13.68
2023-04-07T23:47:11.796Z,15.40
2023-04-07T23:50:15.032Z,11.75
2023-04-07T23:53:18.352Z,12.50
2023-04-07T23:56:21.720Z,14.07
2023-04-07T23:59:25.070Z,14.93
